createdAt,value
2023-05-05T00:00:15.533Z,15.98
2023-05-05T00:03:02.890Z,12.10
2023-05-05T00:05:30.674Z,11.70
2023-05-05T00:07:57.968Z,14.70
2023-05-05T00:10:25.665Z,14.27
2023-05-05T00:12:52.864Z,13.13
2023-05-05T00:15:20.435Z,12.13
2023-05-05T00:17:47.856Z,8.85
2023-05-05T00:20:15.358Z,8.82
2023-05-05T00:22:42.546Z,8.93
2023-05-05T00:25:10.144Z,7.95
2023-05-05T00:27:39.468Z,8.57
2023-05-05T00:30:08.815Z,9.30
2023-05-05T00:32:36.496Z,8.00
2023-05-05T00:35:04.355Z,6.78
2023-05-05T00:37:31.537Z,7.25
2023-05-05T00:39:59.267Z,7.10
2023-05-05T00:42:27.113Z,8.13
2023-05-05T00:44:54.566Z,7.07
2023-05-05T00:47:21.817Z,7.50
2023-05-05T00:49:49.377Z,6.68
2023-05-05T00:52:16.603Z,9.38
2023-05-05T00:54:44.524Z,9.10
2023-05-05T00:57:11.792Z,8.88
2023-05-05T00:59:39.565Z,8.60
2023-05-05T01:02:06.889Z,8.65
2023-05-05T01:04:34.580Z,8.27
2023-05-05T01:07:38.807Z,7.72
2023-05-05T01:10:41.062Z,8.05
2023-05-05T01:13:27.784Z,7.38
2023-05-05T01:16:09.663Z,8.25
2023-05-05T01:18:46.407Z,8.15
2023-05-05T01:21:28.333Z,8.00
2023-05-05T01:24:01.514Z,9.63
2023-05-05T01:26:53.851Z,7.68
2023-05-05T01:29:39.698Z,7.57
2023-05-05T01:32:13.570Z,7.05
2023-05-05T01:35:04.337Z,15.60
2023-05-05T01:38:01.550Z,10.90
2023-05-05T01:40:33.615Z,7.10
2023-05-05T01:43:03.723Z,6.03
2023-05-05T01:45:35.740Z,6.63
2023-05-05T01:48:05.400Z,8.55
2023-05-05T01:50:33.817Z,6.20
2023-05-05T01:53:03.734Z,6.00
2023-05-05T01:55:32.401Z,6.60
2023-05-05T01:58:01.473Z,5.68
2023-05-05T02:00:30.496Z,6.25
2023-05-05T02:02:59.895Z,6.53
2023-05-05T02:05:29.180Z,7.35
2023-05-05T02:07:59.222Z,9.82
2023-05-05T02:10:28.553Z,8.65
2023-05-05T02:12:57.090Z,7.28
2023-05-05T02:15:25.970Z,7.38
2023-05-05T02:17:54.282Z,8.25
2023-05-05T02:20:24.281Z,8.02
2023-05-05T02:22:51.780Z,8.48
2023-05-05T02:25:19.054Z,8.20
2023-05-05T02:27:48.203Z,6.93
2023-05-05T02:30:19.829Z,7.88
2023-05-05T02:32:56.266Z,7.97
2023-05-05T02:35:38.164Z,9.88
2023-05-05T02:38:17.263Z,7.35
2023-05-05T02:40:48.391Z,8.02
2023-05-05T02:43:21.621Z,7.70
2023-05-05T02:45:49.141Z,7.97
2023-05-05T02:48:17.491Z,7.43
2023-05-05T02:50:44.723Z,8.27
2023-05-05T02:53:25.867Z,8.30
2023-05-05T02:55:57.264Z,8.85
2023-05-05T02:58:37.283Z,8.77
2023-05-05T03:01:20.338Z,7.97
2023-05-05T03:04:00.393Z,10.18
2023-05-05T03:06:29.163Z,9.85
2023-05-05T03:09:14.392Z,9.50
2023-05-05T03:11:54.118Z,9.77
2023-05-05T03:14:22.663Z,9.32
2023-05-05T03:16:52.194Z,9.25
2023-05-05T03:19:21.349Z,11.27
2023-05-05T03:21:53.379Z,9.00
2023-05-05T03:24:21.367Z,8.52
2023-05-05T03:27:03.739Z,8.43
2023-05-05T03:29:36.352Z,9.43
2023-05-05T03:32:06.080Z,9.02
2023-05-05T03:34:37.327Z,8.43
2023-05-05T03:37:05.757Z,9.35
2023-05-05T03:39:33.443Z,9.93
2023-05-05T03:42:00.880Z,9.13
2023-05-05T03:44:32.136Z,8.57
2023-05-05T03:46:59.645Z,8.88
2023-05-05T03:49:28.391Z,8.65
2023-05-05T03:51:55.844Z,8.68
2023-05-05T03:54:24.856Z,8.60
2023-05-05T03:56:52.609Z,8.50
2023-05-05T03:59:20.126Z,8.60
2023-05-05T04:01:49.021Z,8.80
2023-05-05T04:04:17.004Z,8.75
2023-05-05T04:06:44.264Z,8.95
2023-05-05T04:09:12.403Z,8.07
2023-05-05T04:11:39.637Z,8.10
2023-05-05T04:14:08.097Z,8.30
2023-05-05T04:16:35.479Z,8.15
2023-05-05T04:19:03.990Z,8.10
2023-05-05T04:21:32.590Z,9.38
2023-05-05T04:24:00.291Z,9.55
2023-05-05T04:26:27.845Z,7.70
2023-05-05T04:28:56.185Z,9.43
2023-05-05T04:31:23.827Z,8.60
2023-05-05T04:33:51.999Z,8.50
2023-05-05T04:36:19.549Z,8.57
2023-05-05T04:38:48.151Z,7.05
2023-05-05T04:41:15.574Z,8.07
2023-05-05T04:43:44.454Z,9.10
2023-05-05T04:46:11.834Z,8.25
2023-05-05T04:48:39.387Z,8.40
2023-05-05T04:51:07.719Z,7.60
2023-05-05T04:53:36.729Z,8.45
2023-05-05T04:56:04.263Z,7.10
2023-05-05T04:58:31.853Z,8.27
2023-05-05T05:00:59.219Z,6.65
2023-05-05T05:03:26.876Z,7.95
2023-05-05T05:05:54.451Z,7.22
2023-05-05T05:08:21.945Z,7.97
2023-05-05T05:10:49.306Z,6.78
2023-05-05T05:13:17.945Z,6.43
2023-05-05T05:15:45.921Z,6.43
2023-05-05T05:18:13.520Z,7.13
2023-05-05T05:20:40.825Z,6.93
2023-05-05T05:23:08.471Z,7.20
2023-05-05T05:25:40.408Z,6.28
2023-05-05T05:28:10.756Z,6.30
2023-05-05T05:30:44.339Z,6.55
2023-05-05T05:33:12.560Z,7.22
2023-05-05T05:35:40.858Z,7.20
2023-05-05T05:38:09.436Z,7.22
2023-05-05T05:40:37.198Z,6.40
2023-05-05T05:43:04.823Z,5.78
2023-05-05T05:45:33.330Z,5.97
2023-05-05T05:48:03.968Z,6.53
2023-05-05T05:50:31.537Z,7.15
2023-05-05T05:52:59.955Z,6.47
2023-05-05T05:55:29.577Z,5.88
2023-05-05T05:57:57.434Z,5.55
2023-05-05T06:00:25.551Z,5.32
2023-05-05T06:03:00.576Z,6.00
2023-05-05T06:05:31.438Z,5.18
2023-05-05T06:07:59.462Z,5.63
2023-05-05T06:10:28.625Z,5.25
2023-05-05T06:13:02.332Z,5.32
2023-05-05T06:15:31.243Z,5.05
2023-05-05T06:18:00.149Z,5.25
2023-05-05T06:20:27.622Z,5.13
2023-05-05T06:22:55.698Z,5.45
2023-05-05T06:25:23.770Z,5.22
2023-05-05T06:27:52.466Z,4.45
2023-05-05T06:30:19.760Z,4.82
2023-05-05T06:32:47.274Z,4.68
2023-05-05T06:35:14.577Z,4.68
2023-05-05T06:37:42.136Z,4.50
2023-05-05T06:40:10.558Z,4.35
2023-05-05T06:42:38.248Z,4.30
2023-05-05T06:45:09.313Z,3.85
2023-05-05T06:47:37.303Z,4.32
2023-05-05T06:50:05.389Z,4.68
2023-05-05T06:52:33.182Z,3.63
2023-05-05T06:55:00.574Z,4.55
2023-05-05T06:57:28.196Z,5.63
2023-05-05T06:59:55.576Z,3.40
2023-05-05T07:02:24.080Z,4.13
2023-05-05T07:04:55.436Z,4.07
2023-05-05T07:07:23.257Z,3.97
2023-05-05T07:09:50.484Z,3.58
2023-05-05T07:12:18.066Z,3.60
2023-05-05T07:14:46.667Z,4.22
2023-05-05T07:17:14.319Z,4.38
2023-05-05T07:19:41.640Z,3.53
2023-05-05T07:22:09.114Z,4.40
2023-05-05T07:24:36.956Z,4.40
2023-05-05T07:27:04.622Z,3.45
2023-05-05T07:29:32.017Z,3.72
2023-05-05T07:31:59.473Z,5.65
2023-05-05T07:34:27.627Z,4.53
2023-05-05T07:36:56.441Z,4.07
2023-05-05T07:39:23.770Z,3.20
2023-05-05T07:41:51.483Z,2.45
2023-05-05T07:44:18.743Z,2.33
2023-05-05T07:46:46.233Z,2.40
2023-05-05T07:49:13.572Z,2.40
2023-05-05T07:51:41.051Z,2.00
2023-05-05T07:54:08.630Z,1.95
2023-05-05T07:56:36.239Z,2.28
2023-05-05T07:59:03.798Z,2.25
2023-05-05T08:01:31.554Z,2.30
2023-05-05T08:03:59.011Z,2.33
2023-05-05T08:06:27.879Z,2.38
2023-05-05T08:08:55.518Z,2.85
2023-05-05T08:11:23.092Z,2.90
2023-05-05T08:13:50.338Z,2.17
2023-05-05T08:16:18.238Z,2.47
2023-05-05T08:18:45.600Z,2.33
2023-05-05T08:21:13.126Z,2.80
2023-05-05T08:23:40.681Z,2.88
2023-05-05T08:26:09.264Z,3.25
2023-05-05T08:28:36.927Z,2.10
2023-05-05T08:31:05.738Z,2.17
2023-05-05T08:33:34.003Z,2.88
2023-05-05T08:36:01.913Z,2.83
2023-05-05T08:38:29.183Z,3.08
2023-05-05T08:40:56.870Z,2.60
2023-05-05T08:43:24.531Z,3.38
2023-05-05T08:45:52.393Z,2.72
2023-05-05T08:48:22.941Z,2.85
2023-05-05T08:53:41.466Z,3.17
2023-05-05T08:56:11.583Z,3.08
2023-05-05T08:58:40.337Z,4.97
2023-05-05T09:01:08.144Z,3.92
2023-05-05T09:03:37.083Z,2.83
2023-05-05T09:06:04.998Z,2.88
2023-05-05T09:08:33.206Z,3.10
2023-05-05T09:11:01.688Z,3.13
2023-05-05T09:13:30.814Z,3.03
2023-05-05T09:15:59.286Z,2.85
2023-05-05T09:18:26.979Z,3.42
2023-05-05T09:20:56.417Z,3.10
2023-05-05T09:23:25.422Z,2.47
2023-05-05T09:26:08.422Z,2.60
2023-05-05T09:28:36.492Z,3.10
2023-05-05T09:31:15.924Z,2.15
2023-05-05T09:33:43.815Z,2.83
2023-05-05T09:36:12.296Z,3.60
2023-05-05T09:38:39.539Z,2.90
2023-05-05T09:41:07.142Z,3.50
2023-05-05T09:43:51.948Z,3.10
2023-05-05T09:46:20.182Z,4.05
2023-05-05T09:48:47.650Z,3.33
2023-05-05T09:51:15.786Z,3.40
2023-05-05T09:53:43.750Z,3.08
2023-05-05T09:56:12.312Z,3.75
2023-05-05T09:58:39.590Z,3.80
2023-05-05T10:01:23.117Z,2.60
2023-05-05T10:03:54.133Z,2.22
2023-05-05T10:06:39.206Z,3.55
2023-05-05T10:09:06.569Z,2.72
2023-05-05T10:11:35.066Z,3.35
2023-05-05T10:14:04.879Z,4.03
2023-05-05T10:16:33.562Z,3.75
2023-05-05T10:19:03.183Z,2.72
2023-05-05T10:21:36.043Z,3.03
2023-05-05T10:24:16.640Z,3.47
2023-05-05T10:26:46.330Z,3.80
2023-05-05T10:29:31.597Z,3.38
2023-05-05T10:32:47.462Z,3.47
2023-05-05T10:35:09.194Z,3.53
2023-05-05T10:37:38.113Z,2.97
2023-05-05T10:40:07.349Z,2.42
2023-05-05T10:42:40.705Z,3.53
2023-05-05T10:45:08.836Z,3.33
2023-05-05T10:47:38.443Z,2.70
2023-05-05T10:50:24.177Z,3.15
2023-05-05T10:53:09.360Z,2.13
2023-05-05T10:56:05.279Z,3.90
2023-05-05T10:58:51.051Z,2.58
2023-05-05T11:01:32.077Z,3.63
2023-05-05T11:04:22.419Z,3.63
2023-05-05T11:07:23.862Z,4.28
2023-05-05T11:09:59.243Z,4.65
2023-05-05T11:12:26.842Z,3.97
2023-05-05T11:15:28.470Z,4.05
2023-05-05T11:17:58.006Z,4.45
2023-05-05T11:20:39.931Z,3.42
2023-05-05T11:23:07.412Z,3.72
2023-05-05T11:25:35.550Z,4.45
2023-05-05T11:28:09.980Z,4.25
2023-05-05T11:30:59.160Z,4.60
2023-05-05T11:33:30.701Z,4.35
2023-05-05T11:35:58.998Z,5.28
2023-05-05T11:38:46.747Z,4.32
2023-05-05T11:41:23.142Z,4.75
2023-05-05T11:43:50.565Z,4.57
2023-05-05T11:46:18.625Z,3.33
2023-05-05T11:48:50.116Z,3.17
2023-05-05T11:51:18.816Z,3.50
2023-05-05T11:53:47.454Z,4.15
2023-05-05T11:56:20.524Z,4.43
2023-05-05T11:59:05.644Z,4.43
2023-05-05T12:01:33.724Z,4.68
2023-05-05T12:04:01.327Z,4.88
2023-05-05T12:06:33.405Z,6.18
2023-05-05T12:09:01.346Z,4.85
2023-05-05T12:11:28.896Z,4.43
2023-05-05T12:14:10.743Z,5.15
2023-05-05T12:16:39.248Z,4.78
2023-05-05T12:19:08.019Z,4.22
2023-05-05T12:21:36.390Z,5.07
2023-05-05T12:24:04.230Z,4.68
2023-05-05T12:26:32.484Z,4.25
2023-05-05T12:29:01.027Z,4.85
2023-05-05T12:31:42.103Z,7.05
2023-05-05T12:34:11.228Z,4.00
2023-05-05T12:36:39.541Z,5.40
2023-05-05T12:39:06.769Z,5.50
2023-05-05T12:41:35.005Z,5.75
2023-05-05T12:44:03.361Z,5.53
2023-05-05T12:46:32.008Z,5.70
2023-05-05T12:49:07.935Z,5.88
2023-05-05T12:51:37.831Z,6.22
2023-05-05T12:54:09.558Z,5.88
2023-05-05T13:02:01.486Z,5.75
2023-05-05T13:04:29.531Z,5.57
2023-05-05T13:07:14.145Z,6.47
2023-05-05T13:09:42.034Z,5.13
2023-05-05T13:12:12.066Z,5.43
2023-05-05T13:14:40.871Z,5.18
2023-05-05T13:17:08.640Z,5.60
2023-05-05T13:19:41.718Z,6.72
2023-05-05T13:22:10.330Z,5.18
2023-05-05T13:24:50.969Z,5.55
2023-05-05T13:27:21.134Z,5.00
2023-05-05T13:29:50.235Z,3.90
2023-05-05T13:32:18.074Z,4.13
2023-05-05T13:34:45.880Z,5.20
2023-05-05T13:37:13.486Z,5.68
2023-05-05T13:39:40.880Z,5.00
2023-05-05T13:42:08.751Z,4.95
2023-05-05T13:44:36.151Z,3.92
2023-05-05T13:47:04.688Z,3.60
2023-05-05T13:49:32.321Z,4.00
2023-05-05T13:52:00.004Z,4.43
2023-05-05T13:54:28.125Z,4.15
2023-05-05T13:56:55.811Z,4.47
2023-05-05T13:59:23.006Z,4.10
2023-05-05T14:01:50.819Z,4.65
2023-05-05T14:04:18.331Z,5.57
2023-05-05T14:06:47.205Z,5.50
2023-05-05T14:09:14.559Z,5.35
2023-05-05T14:11:42.724Z,5.60
2023-05-05T14:14:10.089Z,5.13
2023-05-05T14:16:37.657Z,4.40
2023-05-05T14:19:05.281Z,4.20
2023-05-05T14:21:32.810Z,4.32
2023-05-05T14:24:00.211Z,4.32
2023-05-05T14:26:27.630Z,5.32
2023-05-05T14:28:54.984Z,4.47
2023-05-05T14:31:22.639Z,5.10
2023-05-05T14:33:49.964Z,4.28
2023-05-05T14:36:18.474Z,4.15
2023-05-05T14:38:45.952Z,3.63
2023-05-05T14:41:13.947Z,4.00
2023-05-05T14:43:41.325Z,3.13
2023-05-05T14:46:10.559Z,3.25
2023-05-05T14:48:37.922Z,3.55
2023-05-05T14:51:05.415Z,3.33
2023-05-05T14:53:34.099Z,4.18
2023-05-05T14:56:02.463Z,3.72
2023-05-05T14:58:29.747Z,3.80
2023-05-05T15:00:57.256Z,3.42
2023-05-05T15:03:24.701Z,3.38
2023-05-05T15:05:52.537Z,3.47
2023-05-05T15:08:19.863Z,3.45
2023-05-05T15:10:47.725Z,2.90
2023-05-05T15:13:15.070Z,3.08
2023-05-05T15:15:43.463Z,2.80
2023-05-05T15:18:11.697Z,2.85
2023-05-05T15:20:39.362Z,3.03
2023-05-05T15:23:07.010Z,2.20
2023-05-05T15:25:34.921Z,2.78
2023-05-05T15:28:02.998Z,3.05
2023-05-05T15:30:31.202Z,3.42
2023-05-05T15:32:59.185Z,3.47
2023-05-05T15:35:27.324Z,4.57
2023-05-05T15:37:55.300Z,3.00
2023-05-05T15:40:23.368Z,3.17
2023-05-05T15:42:50.920Z,2.65
2023-05-05T15:45:18.999Z,2.58
2023-05-05T15:47:46.776Z,4.35
2023-05-05T15:50:14.765Z,3.00
2023-05-05T15:52:42.180Z,3.10
2023-05-05T15:55:10.618Z,2.90
2023-05-05T15:57:39.873Z,3.33
2023-05-05T16:00:08.517Z,3.22
2023-05-05T16:02:35.993Z,3.45
2023-05-05T16:05:04.643Z,3.33
2023-05-05T16:07:32.023Z,3.85
2023-05-05T16:09:59.687Z,4.35
2023-05-05T16:12:27.206Z,3.85
2023-05-05T16:14:54.676Z,3.22
2023-05-05T16:17:22.806Z,4.30
2023-05-05T16:19:52.739Z,3.53
2023-05-05T16:22:21.029Z,3.58
2023-05-05T16:24:48.498Z,3.70
2023-05-05T16:27:16.715Z,3.42
2023-05-05T16:29:44.417Z,4.25
2023-05-05T16:32:12.368Z,3.55
2023-05-05T16:34:40.024Z,3.60
2023-05-05T16:37:07.356Z,3.42
2023-05-05T16:39:39.986Z,4.90
2023-05-05T16:42:07.415Z,3.22
2023-05-05T16:44:34.954Z,3.53
2023-05-05T16:47:02.437Z,3.25
2023-05-05T16:49:30.243Z,3.58
2023-05-05T16:51:57.518Z,3.95
2023-05-05T16:54:25.104Z,3.78
2023-05-05T16:56:52.347Z,4.35
2023-05-05T16:59:19.818Z,3.83
2023-05-05T17:01:47.201Z,3.60
2023-05-05T17:04:14.850Z,3.50
2023-05-05T17:06:44.442Z,3.13
2023-05-05T17:09:12.310Z,3.28
2023-05-05T17:11:39.733Z,4.50
2023-05-05T17:14:07.567Z,3.92
2023-05-05T17:16:34.957Z,3.40
2023-05-05T17:19:02.399Z,4.00
2023-05-05T17:21:30.052Z,4.40
2023-05-05T17:23:57.719Z,4.07
2023-05-05T17:26:25.168Z,4.93
2023-05-05T17:28:52.680Z,6.28
2023-05-05T17:31:19.931Z,5.43
2023-05-05T17:33:47.535Z,3.83
2023-05-05T17:36:14.820Z,3.28
2023-05-05T17:38:42.576Z,3.83
2023-05-05T17:41:09.774Z,3.30
2023-05-05T17:43:37.271Z,4.10
2023-05-05T17:46:04.803Z,4.47
2023-05-05T17:48:33.868Z,3.45
2023-05-05T17:51:01.358Z,4.57
2023-05-05T17:53:28.844Z,3.80
2023-05-05T17:55:56.036Z,4.30
2023-05-05T17:58:23.767Z,4.97
2023-05-05T18:00:51.071Z,3.90
2023-05-05T18:03:18.991Z,3.22
2023-05-05T18:05:47.313Z,3.92
2023-05-05T18:08:14.841Z,4.35
2023-05-05T18:10:42.275Z,3.47
2023-05-05T18:13:09.775Z,4.20
2023-05-05T18:15:37.230Z,3.38
2023-05-05T18:18:06.265Z,4.28
2023-05-05T18:20:33.493Z,6.88
2023-05-05T18:23:01.135Z,7.25
2023-05-05T18:25:28.517Z,6.25
2023-05-05T18:27:56.212Z,4.72
2023-05-05T18:30:23.609Z,5.32
2023-05-05T18:32:51.708Z,4.30
2023-05-05T18:35:19.043Z,6.45
2023-05-05T18:37:46.936Z,4.63
2023-05-05T18:40:14.388Z,4.60
2023-05-05T18:42:42.737Z,4.43
2023-05-05T18:45:11.389Z,4.32
2023-05-05T18:47:39.660Z,4.70
2023-05-05T18:50:07.553Z,4.60
2023-05-05T18:52:35.050Z,5.28
2023-05-05T18:55:02.478Z,4.13
2023-05-05T18:57:30.024Z,4.80
2023-05-05T18:59:57.222Z,4.15
2023-05-05T19:02:24.663Z,5.00
2023-05-05T19:04:52.029Z,5.18
2023-05-05T19:10:07.465Z,4.22
2023-05-05T19:12:35.129Z,4.43
2023-05-05T19:15:03.140Z,4.20
2023-05-05T19:17:31.672Z,4.53
2023-05-05T19:19:59.182Z,4.95
2023-05-05T19:22:26.765Z,4.57
2023-05-05T19:24:53.994Z,4.32
2023-05-05T19:27:21.627Z,4.63
2023-05-05T19:29:52.680Z,5.25
2023-05-05T19:32:21.281Z,4.50
2023-05-05T19:34:48.961Z,5.28
2023-05-05T19:37:16.543Z,4.28
2023-05-05T19:39:45.737Z,4.30
2023-05-05T19:42:13.391Z,5.18
2023-05-05T19:44:40.945Z,4.72
2023-05-05T19:47:10.862Z,4.80
2023-05-05T19:49:38.636Z,5.47
2023-05-05T19:52:09.047Z,4.47
2023-05-05T19:54:37.139Z,4.57
2023-05-05T19:57:05.378Z,4.82
2023-05-05T19:59:33.944Z,4.70
2023-05-05T20:02:01.614Z,5.38
2023-05-05T20:04:28.969Z,4.68
2023-05-05T20:06:57.275Z,5.22
2023-05-05T20:09:24.458Z,4.75
2023-05-05T20:11:52.244Z,5.63
2023-05-05T20:14:19.523Z,6.47
2023-05-05T20:16:47.062Z,4.70
2023-05-05T20:19:14.382Z,4.55
2023-05-05T20:21:41.897Z,5.65
2023-05-05T20:24:09.537Z,4.97
2023-05-05T20:26:37.826Z,5.40
2023-05-05T20:29:05.202Z,4.60
2023-05-05T20:31:34.864Z,4.85
2023-05-05T20:34:02.226Z,4.10
2023-05-05T20:36:30.218Z,4.75
2023-05-05T20:38:57.629Z,5.05
2023-05-05T20:41:25.185Z,4.72
2023-05-05T20:43:52.361Z,4.93
2023-05-05T20:46:19.839Z,4.43
2023-05-05T20:48:47.224Z,4.38
2023-05-05T20:51:14.973Z,4.60
2023-05-05T20:53:42.602Z,4.88
2023-05-05T20:56:10.798Z,5.90
2023-05-05T20:58:38.003Z,4.32
2023-05-05T21:01:05.573Z,4.97
2023-05-05T21:03:34.567Z,4.82
2023-05-05T21:06:03.488Z,4.93
2023-05-05T21:08:31.220Z,4.85
2023-05-05T21:10:58.703Z,4.75
2023-05-05T21:13:25.967Z,4.28
2023-05-05T21:15:53.394Z,4.38
2023-05-05T21:18:20.761Z,5.65
2023-05-05T21:20:48.304Z,4.68
2023-05-05T21:23:15.610Z,5.43
2023-05-05T21:25:43.217Z,5.38
2023-05-05T21:28:11.118Z,4.60
2023-05-05T21:30:39.161Z,4.80
2023-05-05T21:33:06.490Z,5.45
2023-05-05T21:35:33.947Z,5.00
2023-05-05T21:38:01.758Z,4.82
2023-05-05T21:40:29.335Z,5.68
2023-05-05T21:42:56.573Z,3.70
2023-05-05T21:45:24.117Z,4.25
2023-05-05T21:47:51.448Z,4.47
2023-05-05T21:50:19.388Z,3.67
2023-05-05T21:52:46.541Z,4.65
2023-05-05T21:55:14.038Z,4.45
2023-05-05T21:57:44.606Z,4.28
2023-05-05T22:00:16.871Z,3.70
2023-05-05T22:05:13.423Z,4.10
2023-05-05T22:07:40.847Z,3.85
2023-05-05T22:10:09.117Z,4.20
2023-05-05T22:12:36.699Z,4.03
2023-05-05T22:15:04.671Z,4.13
2023-05-05T22:17:31.986Z,4.70
2023-05-05T22:19:59.787Z,4.20
2023-05-05T22:22:27.077Z,4.20
2023-05-05T22:24:54.707Z,4.82
2023-05-05T22:27:22.114Z,4.00
2023-05-05T22:29:49.913Z,3.60
2023-05-05T22:32:17.356Z,5.03
2023-05-05T22:34:44.839Z,3.60
2023-05-05T22:37:12.117Z,3.92
2023-05-05T22:39:39.711Z,4.20
2023-05-05T22:42:07.020Z,4.68
2023-05-05T22:44:35.041Z,4.53
2023-05-05T22:47:03.484Z,4.32
2023-05-05T22:49:31.707Z,4.57
2023-05-05T22:51:58.983Z,4.53
2023-05-05T22:54:26.716Z,4.68
2023-05-05T22:56:54.076Z,4.35
2023-05-05T22:59:21.648Z,4.78
2023-05-05T23:01:48.894Z,4.53
2023-05-05T23:04:16.688Z,3.88
2023-05-05T23:06:44.913Z,4.03
2023-05-05T23:09:12.869Z,4.60
2023-05-05T23:11:40.332Z,3.72
2023-05-05T23:14:08.148Z,4.10
2023-05-05T23:16:35.460Z,4.70
2023-05-05T23:19:02.972Z,3.63
2023-05-05T23:21:33.862Z,4.47
2023-05-05T23:24:03.995Z,3.80
2023-05-05T23:26:31.367Z,4.25
2023-05-05T23:28:58.855Z,3.60
2023-05-05T23:31:26.306Z,4.20
2023-05-05T23:33:54.185Z,5.47
2023-05-05T23:36:21.502Z,4.22
2023-05-05T23:38:49.191Z,3.90
2023-05-05T23:41:18.418Z,4.80
2023-05-05T23:43:46.097Z,4.30
2023-05-05T23:46:13.339Z,4.15
2023-05-05T23:48:40.858Z,3.58
2023-05-05T23:51:08.089Z,3.70
2023-05-05T23:53:35.573Z,4.20
2023-05-05T23:56:03.794Z,3.95
2023-05-05T23:58:31.332Z,4.03
